sensor_id;sensor_type;location;lat;lon;timestamp;pressure;altitude;pressure_sealevel;temperature;humidity
41636;BME280;27623;51.966;4.602;2022-10-16T00:01:23;64779.25;;;14.24;100.00
41636;BME280;27623;51.966;4.602;2022-10-16T00:03:50;64800.50;;;14.27;100.00
41636;BME280;27623;51.966;4.602;2022-10-16T00:06:17;64818.63;;;14.22;100.00
41636;BME280;27623;51.966;4.602;2022-10-16T00:08:43;64839.31;;;14.25;100.00
41636;BME280;27623;51.966;4.602;2022-10-16T00:11:20;64788.22;;;14.27;100.00
41636;BME280;27623;51.966;4.602;2022-10-16T00:13:48;64794.66;;;14.24;100.00
41636;BME280;27623;51.966;4.602;2022-10-16T00:16:14;64806.53;;;14.25;100.00
41636;BME280;27623;51.966;4.602;2022-10-16T00:18:40;64789.91;;;14.15;100.00
41636;BME280;27623;51.966;4.602;2022-10-16T00:21:18;64805.81;;;14.22;100.00
41636;BME280;27623;51.966;4.602;2022-10-16T00:23:44;64770.34;;;14.13;100.00
41636;BME280;27623;51.966;4.602;2022-10-16T00:26:13;64809.66;;;14.26;100.00
41636;BME280;27623;51.966;4.602;2022-10-16T00:28:39;64792.03;;;14.38;100.00
41636;BME280;27623;51.966;4.602;2022-10-16T00:31:06;64841.50;;;14.34;100.00
41636;BME280;27623;51.966;4.602;2022-10-16T00:33:33;64797.22;;;14.24;100.00
41636;BME280;27623;51.966;4.602;2022-10-16T00:35:59;64781.28;;;14.23;100.00
41636;BME280;27623;51.966;4.602;2022-10-16T00:38:25;64814.25;;;14.18;100.00
41636;BME280;27623;51.966;4.602;2022-10-16T00:40:51;64807.69;;;14.12;100.00
41636;BME280;27623;51.966;4.602;2022-10-16T00:43:36;64772.94;;;14.06;100.00
41636;BME280;27623;51.966;4.602;2022-10-16T00:46:05;64774.56;;;14.07;100.00
41636;BME280;27623;51.966;4.602;2022-10-16T00:48:34;64743.88;;;13.93;100.00
41636;BME280;27623;51.966;4.602;2022-10-16T00:51:00;64758.66;;;14.00;100.00
41636;BME280;27623;51.966;4.602;2022-10-16T00:53:25;64763.06;;;13.97;100.00
41636;BME280;27623;51.966;4.602;2022-10-16T00:55:55;64766.59;;;13.88;100.00
41636;BME280;27623;51.966;4.602;2022-10-16T00:58:20;64755.97;;;13.90;100.00
41636;BME280;27623;51.966;4.602;2022-10-16T01:00:48;64747.56;;;13.87;100.00
41636;BME280;27623;51.966;4.602;2022-10-16T01:03:26;64779.22;;;13.86;100.00
41636;BME280;27623;51.966;4.602;2022-10-16T01:11:45;64752.13;;;13.87;100.00
41636;BME280;27623;51.966;4.602;2022-10-16T01:14:26;64717.75;;;13.79;100.00
41636;BME280;27623;51.966;4.602;2022-10-16T01:17:04;64712.63;;;13.79;100.00
41636;BME280;27623;51.966;4.602;2022-10-16T01:23:07;64761.09;;;13.83;100.00
41636;BME280;27623;51.966;4.602;2022-10-16T01:25:55;64760.75;;;13.78;100.00
41636;BME280;27623;51.966;4.602;2022-10-16T01:28:38;64736.59;;;13.77;100.00
41636;BME280;27623;51.966;4.602;2022-10-16T01:31:05;64738.09;;;13.69;100.00
41636;BME280;27623;51.966;4.602;2022-10-16T01:33:47;64740.88;;;13.64;100.00
41636;BME280;27623;51.966;4.602;2022-10-16T01:36:18;64727.50;;;13.64;100.00
41636;BME280;27623;51.966;4.602;2022-10-16T01:38:49;64720.00;;;13.66;100.00
41636;BME280;27623;51.966;4.602;2022-10-16T01:41:28;64708.66;;;13.65;100.00
41636;BME280;27623;51.966;4.602;2022-10-16T01:44:04;64699.72;;;13.62;100.00
41636;BME280;27623;51.966;4.602;2022-10-16T01:46:33;64735.75;;;13.64;100.00
41636;BME280;27623;51.966;4.602;2022-10-16T01:49:00;64713.81;;;13.58;100.00
41636;BME280;27623;51.966;4.602;2022-10-16T01:51:27;64725.19;;;13.45;100.00
41636;BME280;27623;51.966;4.602;2022-10-16T01:53:55;64724.28;;;13.47;100.00
41636;BME280;27623;51.966;4.602;2022-10-16T01:56:24;64691.31;;;13.52;100.00
41636;BME280;27623;51.966;4.602;2022-10-16T01:58:58;64716.19;;;13.56;100.00
41636;BME280;27623;51.966;4.602;2022-10-16T02:01:26;64735.25;;;13.50;100.00
41636;BME280;27623;51.966;4.602;2022-10-16T02:03:54;64724.63;;;13.52;100.00
41636;BME280;27623;51.966;4.602;2022-10-16T02:06:22;64722.06;;;13.52;100.00
41636;BME280;27623;51.966;4.602;2022-10-16T02:08:48;64678.75;;;13.47;100.00
41636;BME280;27623;51.966;4.602;2022-10-16T02:11:17;64694.06;;;13.54;100.00
41636;BME280;27623;51.966;4.602;2022-10-16T02:13:48;64709.44;;;13.54;100.00
41636;BME280;27623;51.966;4.602;2022-10-16T02:16:16;64708.19;;;13.51;100.00
41636;BME280;27623;51.966;4.602;2022-10-16T02:18:43;64725.50;;;13.57;100.00
41636;BME280;27623;51.966;4.602;2022-10-16T02:26:49;64719.31;;;13.56;100.00
41636;BME280;27623;51.966;4.602;2022-10-16T02:29:21;64731.00;;;13.55;100.00
41636;BME280;27623;51.966;4.602;2022-10-16T02:31:51;64734.47;;;13.61;100.00
41636;BME280;27623;51.966;4.602;2022-10-16T02:34:21;64733.91;;;13.60;100.00
41636;BME280;27623;51.966;4.602;2022-10-16T02:36:50;64747.09;;;13.65;100.00
41636;BME280;27623;51.966;4.602;2022-10-16T02:39:19;64743.44;;;13.57;100.00
41636;BME280;27623;51.966;4.602;2022-10-16T02:41:45;64698.28;;;13.56;100.00
41636;BME280;27623;51.966;4.602;2022-10-16T02:44:11;64720.25;;;13.48;100.00
41636;BME280;27623;51.966;4.602;2022-10-16T02:46:36;64701.25;;;13.47;100.00
41636;BME280;27623;51.966;4.602;2022-10-16T02:49:02;64721.50;;;13.51;100.00
41636;BME280;27623;51.966;4.602;2022-10-16T02:51:27;64687.16;;;13.50;100.00
41636;BME280;27623;51.966;4.602;2022-10-16T02:53:53;64745.97;;;13.64;100.00
41636;BME280;27623;51.966;4.602;2022-10-16T02:56:18;64764.47;;;13.65;100.00
41636;BME280;27623;51.966;4.602;2022-10-16T02:58:47;64730.28;;;13.52;100.00
41636;BME280;27623;51.966;4.602;2022-10-16T03:01:12;64664.50;;;13.41;100.00
41636;BME280;27623;51.966;4.602;2022-10-16T03:03:39;64696.50;;;13.45;100.00
41636;BME280;27623;51.966;4.602;2022-10-16T03:06:04;64722.09;;;13.45;100.00
41636;BME280;27623;51.966;4.602;2022-10-16T03:08:30;64675.47;;;13.44;100.00
41636;BME280;27623;51.966;4.602;2022-10-16T03:10:56;64715.09;;;13.55;100.00
41636;BME280;27623;51.966;4.602;2022-10-16T03:13:22;64705.22;;;13.53;100.00
41636;BME280;27623;51.966;4.602;2022-10-16T03:15:47;64705.63;;;13.51;100.00
41636;BME280;27623;51.966;4.602;2022-10-16T03:18:13;64712.03;;;13.47;100.00
41636;BME280;27623;51.966;4.602;2022-10-16T03:20:39;64748.03;;;13.50;100.00
41636;BME280;27623;51.966;4.602;2022-10-16T03:23:05;64735.41;;;13.52;100.00
41636;BME280;27623;51.966;4.602;2022-10-16T03:25:31;64698.28;;;13.56;100.00
41636;BME280;27623;51.966;4.602;2022-10-16T03:28:00;64702.28;;;13.62;100.00
41636;BME280;27623;51.966;4.602;2022-10-16T03:30:28;64764.28;;;13.62;100.00
41636;BME280;27623;51.966;4.602;2022-10-16T03:32:54;64722.59;;;13.52;100.00
41636;BME280;27623;51.966;4.602;2022-10-16T03:35:21;64725.00;;;13.50;100.00
41636;BME280;27623;51.966;4.602;2022-10-16T03:37:46;64739.97;;;13.52;100.00
41636;BME280;27623;51.966;4.602;2022-10-16T03:40:13;64710.56;;;13.48;100.00
41636;BME280;27623;51.966;4.602;2022-10-16T03:42:38;64689.34;;;13.45;100.00
41636;BME280;27623;51.966;4.602;2022-10-16T03:45:04;64703.25;;;13.46;100.00
41636;BME280;27623;51.966;4.602;2022-10-16T03:47:30;64702.50;;;13.50;100.00
41636;BME280;27623;51.966;4.602;2022-10-16T03:49:58;64697.94;;;13.44;100.00
41636;BME280;27623;51.966;4.602;2022-10-16T03:52:24;64705.09;;;13.43;100.00
41636;BME280;27623;51.966;4.602;2022-10-16T03:54:50;64690.47;;;13.39;100.00
41636;BME280;27623;51.966;4.602;2022-10-16T03:57:15;64722.06;;;13.52;100.00
41636;BME280;27623;51.966;4.602;2022-10-16T03:59:41;64735.44;;;13.45;100.00
41636;BME280;27623;51.966;4.602;2022-10-16T04:02:06;64724.59;;;13.59;100.00
41636;BME280;27623;51.966;4.602;2022-10-16T04:04:31;64704.13;;;13.59;100.00
41636;BME280;27623;51.966;4.602;2022-10-16T04:06:57;64742.38;;;13.49;100.00
41636;BME280;27623;51.966;4.602;2022-10-16T04:09:22;64710.56;;;13.48;100.00
41636;BME280;27623;51.966;4.602;2022-10-16T04:11:47;64694.69;;;13.33;100.00
41636;BME280;27623;51.966;4.602;2022-10-16T04:14:13;64718.47;;;13.29;100.00
41636;BME280;27623;51.966;4.602;2022-10-16T04:16:39;64722.47;;;13.43;100.00
41636;BME280;27623;51.966;4.602;2022-10-16T04:19:05;64703.25;;;13.39;100.00
41636;BME280;27623;51.966;4.602;2022-10-16T04:21:30;64662.88;;;13.32;100.00
41636;BME280;27623;51.966;4.602;2022-10-16T04:23:55;64666.53;;;13.33;100.00
41636;BME280;27623;51.966;4.602;2022-10-16T04:26:21;64686.44;;;13.40;100.00
41636;BME280;27623;51.966;4.602;2022-10-16T04:28:47;64693.56;;;13.39;100.00
41636;BME280;27623;51.966;4.602;2022-10-16T04:31:12;64720.81;;;13.41;100.00
41636;BME280;27623;51.966;4.602;2022-10-16T04:33:37;64668.00;;;13.32;100.00
41636;BME280;27623;51.966;4.602;2022-10-16T04:36:05;64712.78;;;13.36;100.00
41636;BME280;27623;51.966;4.602;2022-10-16T04:38:31;64698.50;;;13.37;100.00
41636;BME280;27623;51.966;4.602;2022-10-16T04:40:59;64714.06;;;13.39;100.00
41636;BME280;27623;51.966;4.602;2022-10-16T04:43:25;64709.66;;;13.43;100.00
41636;BME280;27623;51.966;4.602;2022-10-16T04:45:51;64717.72;;;13.33;100.00
41636;BME280;27623;51.966;4.602;2022-10-16T04:48:17;64697.63;;;13.31;100.00
41636;BME280;27623;51.966;4.602;2022-10-16T04:50:43;64684.06;;;13.35;100.00
41636;BME280;27623;51.966;4.602;2022-10-16T04:53:08;64715.69;;;13.48;100.00
41636;BME280;27623;51.966;4.602;2022-10-16T04:55:34;64723.19;;;13.46;100.00
41636;BME280;27623;51.966;4.602;2022-10-16T04:58:00;64691.19;;;13.42;100.00
41636;BME280;27623;51.966;4.602;2022-10-16T05:00:26;64706.56;;;13.35;100.00
41636;BME280;27623;51.966;4.602;2022-10-16T05:02:51;64721.72;;;13.39;100.00
41636;BME280;27623;51.966;4.602;2022-10-16T05:05:16;64690.47;;;13.32;100.00
41636;BME280;27623;51.966;4.602;2022-10-16T05:07:45;64723.91;;;13.41;100.00
41636;BME280;27623;51.966;4.602;2022-10-16T05:10:11;64736.72;;;13.41;100.00
41636;BME280;27623;51.966;4.602;2022-10-16T05:12:36;64669.25;;;13.36;100.00
41636;BME280;27623;51.966;4.602;2022-10-16T05:15:02;64722.47;;;13.43;100.00
41636;BME280;27623;51.966;4.602;2022-10-16T05:17:28;64703.25;;;13.39;100.00
41636;BME280;27623;51.966;4.602;2022-10-16T05:19:53;64701.06;;;13.44;100.00
41636;BME280;27623;51.966;4.602;2022-10-16T05:22:19;64702.53;;;13.43;100.00
41636;BME280;27623;51.966;4.602;2022-10-16T05:24:44;64714.22;;;13.42;100.00
41636;BME280;27623;51.966;4.602;2022-10-16T05:27:10;64702.69;;;13.46;100.00
41636;BME280;27623;51.966;4.602;2022-10-16T05:29:36;64717.31;;;13.50;100.00
41636;BME280;27623;51.966;4.602;2022-10-16T05:32:02;64715.66;;;13.55;100.00
41636;BME280;27623;51.966;4.602;2022-10-16T05:34:28;64744.72;;;13.54;100.00
41636;BME280;27623;51.966;4.602;2022-10-16T05:36:54;64714.38;;;13.52;100.00
41636;BME280;27623;51.966;4.602;2022-10-16T05:39:20;64716.94;;;13.52;100.00
41636;BME280;27623;51.966;4.602;2022-10-16T05:41:45;64736.53;;;13.46;100.00
41636;BME280;27623;51.966;4.602;2022-10-16T05:44:11;64724.41;;;13.56;100.00
41636;BME280;27623;51.966;4.602;2022-10-16T05:46:36;64737.59;;;13.54;100.00
41636;BME280;27623;51.966;4.602;2022-10-16T05:49:02;64742.69;;;13.61;100.00
41636;BME280;27623;51.966;4.602;2022-10-16T05:51:28;64719.09;;;13.61;100.00
41636;BME280;27623;51.966;4.602;2022-10-16T05:53:53;64729.53;;;13.56;100.00
41636;BME280;27623;51.966;4.602;2022-10-16T05:56:19;64727.72;;;13.52;100.00
41636;BME280;27623;51.966;4.602;2022-10-16T05:58:45;64721.72;;;13.47;100.00
41636;BME280;27623;51.966;4.602;2022-10-16T06:01:14;64706.13;;;13.51;100.00
41636;BME280;27623;51.966;4.602;2022-10-16T06:03:40;64734.28;;;13.58;100.00
41636;BME280;27623;51.966;4.602;2022-10-16T06:06:17;64740.69;;;13.62;100.00
41636;BME280;27623;51.966;4.602;2022-10-16T06:08:44;64740.50;;;13.59;100.00
41636;BME280;27623;51.966;4.602;2022-10-16T06:11:13;64710.88;;;13.53;100.00
41636;BME280;27623;51.966;4.602;2022-10-16T06:13:39;64733.56;;;13.55;100.00
41636;BME280;27623;51.966;4.602;2022-10-16T06:16:10;64727.00;;;13.49;100.00
41636;BME280;27623;51.966;4.602;2022-10-16T06:18:38;64720.97;;;13.51;100.00
41636;BME280;27623;51.966;4.602;2022-10-16T06:21:11;64734.66;;;13.63;100.00
41636;BME280;27623;51.966;4.602;2022-10-16T06:23:38;64730.06;;;13.64;100.00
41636;BME280;27623;51.966;4.602;2022-10-16T06:26:08;64719.69;;;13.47;100.00
41636;BME280;27623;51.966;4.602;2022-10-16T06:28:35;64698.50;;;13.44;100.00
41636;BME280;27623;51.966;4.602;2022-10-16T06:31:01;64701.06;;;13.44;100.00
41636;BME280;27623;51.966;4.602;2022-10-16T06:33:27;64730.31;;;13.45;100.00
41636;BME280;27623;51.966;4.602;2022-10-16T06:35:52;64735.63;;;13.48;100.00
41636;BME280;27623;51.966;4.602;2022-10-16T06:38:18;64756.97;;;13.60;100.00
41636;BME280;27623;51.966;4.602;2022-10-16T06:40:43;64738.50;;;13.60;100.00
41636;BME280;27623;51.966;4.602;2022-10-16T06:43:09;64723.31;;;13.55;100.00
41636;BME280;27623;51.966;4.602;2022-10-16T06:45:34;64720.81;;;13.48;100.00
41636;BME280;27623;51.966;4.602;2022-10-16T06:47:59;64734.13;;;13.56;100.00
41636;BME280;27623;51.966;4.602;2022-10-16T06:50:25;64735.22;;;13.57;100.00
41636;BME280;27623;51.966;4.602;2022-10-16T06:52:50;64749.84;;;13.54;100.00
41636;BME280;27623;51.966;4.602;2022-10-16T06:55:18;64723.53;;;13.51;100.00
41636;BME280;27623;51.966;4.602;2022-10-16T06:57:43;64720.41;;;13.57;100.00
41636;BME280;27623;51.966;4.602;2022-10-16T07:00:11;64731.75;;;13.51;100.00
41636;BME280;27623;51.966;4.602;2022-10-16T07:02:37;64705.63;;;13.51;100.00
41636;BME280;27623;51.966;4.602;2022-10-16T07:05:03;64726.13;;;13.44;100.00
41636;BME280;27623;51.966;4.602;2022-10-16T07:07:29;64708.38;;;13.46;100.00
41636;BME280;27623;51.966;4.602;2022-10-16T07:09:54;64730.88;;;13.38;100.00
41636;BME280;27623;51.966;4.602;2022-10-16T07:12:20;64726.84;;;13.47;100.00
41636;BME280;27623;51.966;4.602;2022-10-16T07:14:45;64690.09;;;13.41;100.00
41636;BME280;27623;51.966;4.602;2022-10-16T07:17:13;64704.91;;;13.40;100.00
41636;BME280;27623;51.966;4.602;2022-10-16T07:19:38;64717.16;;;13.40;100.00
41636;BME280;27623;51.966;4.602;2022-10-16T07:22:04;64721.19;;;13.39;100.00
41636;BME280;27623;51.966;4.602;2022-10-16T07:24:30;64684.44;;;13.40;100.00
41636;BME280;27623;51.966;4.602;2022-10-16T07:26:55;64754.44;;;13.46;100.00
41636;BME280;27623;51.966;4.602;2022-10-16T07:29:21;64759.56;;;13.46;100.00
41636;BME280;27623;51.966;4.602;2022-10-16T07:31:47;64751.84;;;13.60;100.00
41636;BME280;27623;51.966;4.602;2022-10-16T07:34:14;64688.22;;;13.51;100.00
41636;BME280;27623;51.966;4.602;2022-10-16T07:36:40;64703.00;;;13.58;100.00
41636;BME280;27623;51.966;4.602;2022-10-16T07:39:05;64755.16;;;13.56;100.00
41636;BME280;27623;51.966;4.602;2022-10-16T07:41:31;64773.03;;;13.70;100.00
41636;BME280;27623;51.966;4.602;2022-10-16T07:43:58;64759.88;;;13.65;100.00
41636;BME280;27623;51.966;4.602;2022-10-16T07:46:25;64763.13;;;13.75;100.00
41636;BME280;27623;51.966;4.602;2022-10-16T07:48:51;64758.97;;;13.67;100.00
41636;BME280;27623;51.966;4.602;2022-10-16T07:51:19;64753.78;;;13.81;100.00
41636;BME280;27623;51.966;4.602;2022-10-16T07:53:45;64762.59;;;13.75;100.00
41636;BME280;27623;51.966;4.602;2022-10-16T07:56:11;64768.22;;;13.90;100.00
41636;BME280;27623;51.966;4.602;2022-10-16T07:58:37;64748.84;;;13.84;100.00
41636;BME280;27623;51.966;4.602;2022-10-16T08:01:05;64764.94;;;13.87;100.00
41636;BME280;27623;51.966;4.602;2022-10-16T08:03:31;64778.47;;;13.90;100.00
41636;BME280;27623;51.966;4.602;2022-10-16T08:05:57;64779.38;;;13.95;100.00
41636;BME280;27623;51.966;4.602;2022-10-16T08:08:26;64771.66;;;14.02;100.00
41636;BME280;27623;51.966;4.602;2022-10-16T08:10:51;64756.31;;;13.95;100.00
41636;BME280;27623;51.966;4.602;2022-10-16T08:13:17;64804.03;;;14.11;100.00
41636;BME280;27623;51.966;4.602;2022-10-16T08:15:43;64789.03;;;14.09;100.00
41636;BME280;27623;51.966;4.602;2022-10-16T08:18:09;64816.63;;;14.16;100.00
41636;BME280;27623;51.966;4.602;2022-10-16T08:20:38;64827.41;;;14.23;100.00
41636;BME280;27623;51.966;4.602;2022-10-16T08:23:06;64809.47;;;14.23;100.00
41636;BME280;27623;51.966;4.602;2022-10-16T08:25:34;64793.00;;;14.22;100.00
41636;BME280;27623;51.966;4.602;2022-10-16T08:28:00;64814.97;;;14.28;100.00
41636;BME280;27623;51.966;4.602;2022-10-16T08:30:28;64836.34;;;14.48;100.00
41636;BME280;27623;51.966;4.602;2022-10-16T08:32:53;64843.66;;;14.50;100.00
41636;BME280;27623;51.966;4.602;2022-10-16T08:35:18;64839.63;;;14.51;100.00
41636;BME280;27623;51.966;4.602;2022-10-16T08:37:44;64842.38;;;14.54;100.00
41636;BME280;27623;51.966;4.602;2022-10-16T08:40:26;64846.53;;;14.62;100.00
41636;BME280;27623;51.966;4.602;2022-10-16T08:48:57;64867.72;;;14.79;100.00
41636;BME280;27623;51.966;4.602;2022-10-16T08:51:26;64896.81;;;14.92;100.00
41636;BME280;27623;51.966;4.602;2022-10-16T08:53:57;64907.09;;;14.92;100.00
41636;BME280;27623;51.966;4.602;2022-10-16T08:56:24;64917.31;;;14.99;100.00
41636;BME280;27623;51.966;4.602;2022-10-16T08:58:51;64867.81;;;15.03;100.00
41636;BME280;27623;51.966;4.602;2022-10-16T09:01:19;64912.53;;;15.04;100.00
41636;BME280;27623;51.966;4.602;2022-10-16T09:09:18;64943.28;;;15.19;100.00
41636;BME280;27623;51.966;4.602;2022-10-16T09:17:41;64937.72;;;15.35;100.00
41636;BME280;27623;51.966;4.602;2022-10-16T09:25:29;64983.69;;;15.61;100.00
41636;BME280;27623;51.966;4.602;2022-10-16T09:27:55;64986.94;;;15.71;100.00
41636;BME280;27623;51.966;4.602;2022-10-16T09:30:21;65046.34;;;15.83;100.00
41636;BME280;27623;51.966;4.602;2022-10-16T09:32:50;65014.06;;;15.84;100.00
41636;BME280;27623;51.966;4.602;2022-10-16T09:35:20;65043.41;;;15.85;100.00
41636;BME280;27623;51.966;4.602;2022-10-16T09:37:48;65021.38;;;15.86;100.00
41636;BME280;27623;51.966;4.602;2022-10-16T09:40:34;65053.25;;;16.01;100.00
41636;BME280;27623;51.966;4.602;2022-10-16T09:43:26;65064.38;;;16.21;100.00
41636;BME280;27623;51.966;4.602;2022-10-16T09:45:57;65040.09;;;16.34;100.00
41636;BME280;27623;51.966;4.602;2022-10-16T09:48:25;65071.31;;;16.39;100.00
41636;BME280;27623;51.966;4.602;2022-10-16T09:51:00;65089.41;;;16.56;100.00
41636;BME280;27623;51.966;4.602;2022-10-16T09:54:10;65091.44;;;16.56;100.00
41636;BME280;27623;51.966;4.602;2022-10-16T09:56:38;65123.34;;;16.71;100.00
41636;BME280;27623;51.966;4.602;2022-10-16T09:59:14;65137.69;;;16.77;100.00
41636;BME280;27623;51.966;4.602;2022-10-16T10:01:45;65156.16;;;16.92;100.00
41636;BME280;27623;51.966;4.602;2022-10-16T10:04:11;65200.59;;;17.09;100.00
41636;BME280;27623;51.966;4.602;2022-10-16T10:06:43;65165.91;;;17.29;100.00
41636;BME280;27623;51.966;4.602;2022-10-16T10:12:01;65233.88;;;17.59;100.00
41636;BME280;27623;51.966;4.602;2022-10-16T10:19:40;65256.16;;;17.91;100.00
41636;BME280;27623;51.966;4.602;2022-10-16T10:22:23;65300.38;;;18.27;99.52
41636;BME280;27623;51.966;4.602;2022-10-16T10:27:29;65365.06;;;18.68;95.11
41636;BME280;27623;51.966;4.602;2022-10-16T10:33:28;65416.94;;;19.18;86.80
41636;BME280;27623;51.966;4.602;2022-10-16T10:35:56;65391.03;;;19.01;90.02
41636;BME280;27623;51.966;4.602;2022-10-16T10:57:17;65434.19;;;19.36;81.42
41636;BME280;27623;51.966;4.602;2022-10-16T11:02:39;65457.50;;;19.29;80.18
41636;BME280;27623;51.966;4.602;2022-10-16T11:10:57;65468.22;;;19.58;79.44
41636;BME280;27623;51.966;4.602;2022-10-16T11:15:58;65492.41;;;19.64;77.91
41636;BME280;27623;51.966;4.602;2022-10-16T11:21:13;65551.59;;;20.13;72.56
41636;BME280;27623;51.966;4.602;2022-10-16T11:23:53;65587.78;;;20.51;70.95
41636;BME280;27623;51.966;4.602;2022-10-16T11:26:25;65553.69;;;20.30;69.20
41636;BME280;27623;51.966;4.602;2022-10-16T11:28:54;65533.28;;;19.87;69.27
41636;BME280;27623;51.966;4.602;2022-10-16T11:31:28;65575.84;;;20.36;69.94
41636;BME280;27623;51.966;4.602;2022-10-16T11:34:08;65583.69;;;20.52;67.77
41636;BME280;27623;51.966;4.602;2022-10-16T11:39:45;65594.69;;;20.39;63.88
41636;BME280;27623;51.966;4.602;2022-10-16T11:42:18;65583.44;;;20.33;64.91
41636;BME280;27623;51.966;4.602;2022-10-16T11:53:00;65687.00;;;21.26;63.54
41636;BME280;27623;51.966;4.602;2022-10-16T11:55:31;65698.22;;;21.39;62.11
41636;BME280;27623;51.966;4.602;2022-10-16T11:58:04;65736.53;;;21.69;60.08
41636;BME280;27623;51.966;4.602;2022-10-16T12:00:46;65677.25;;;21.19;62.43
41636;BME280;27623;51.966;4.602;2022-10-16T12:05:55;65669.38;;;21.03;60.00
41636;BME280;27623;51.966;4.602;2022-10-16T12:08:24;65704.66;;;21.18;60.56
41636;BME280;27623;51.966;4.602;2022-10-16T12:10:50;65694.84;;;20.88;63.02
41636;BME280;27623;51.966;4.602;2022-10-16T12:13:39;65712.69;;;21.38;60.71
41636;BME280;27623;51.966;4.602;2022-10-16T12:18:43;65733.44;;;21.61;58.49
41636;BME280;27623;51.966;4.602;2022-10-16T12:21:10;65622.41;;;20.74;60.28
41636;BME280;27623;51.966;4.602;2022-10-16T12:23:52;65682.09;;;21.14;60.63
41636;BME280;27623;51.966;4.602;2022-10-16T12:26:32;65640.97;;;20.65;60.10
41636;BME280;27623;51.966;4.602;2022-10-16T12:29:23;65616.84;;;20.76;59.45
41636;BME280;27623;51.966;4.602;2022-10-16T12:31:53;65698.38;;;21.17;57.97
41636;BME280;27623;51.966;4.602;2022-10-16T12:34:31;65691.47;;;21.47;57.24
41636;BME280;27623;51.966;4.602;2022-10-16T12:39:44;65656.41;;;21.03;57.60
41636;BME280;27623;51.966;4.602;2022-10-16T12:44:46;65606.34;;;20.66;59.59
41636;BME280;27623;51.966;4.602;2022-10-16T12:49:57;65572.88;;;20.62;57.18
41636;BME280;27623;51.966;4.602;2022-10-16T12:52:25;65596.84;;;20.48;57.48
41636;BME280;27623;51.966;4.602;2022-10-16T12:54:51;65580.56;;;20.52;57.02
41636;BME280;27623;51.966;4.602;2022-10-16T13:11:37;65523.59;;;19.97;57.99
41636;BME280;27623;51.966;4.602;2022-10-16T13:25:35;65476.78;;;20.02;66.20
41636;BME280;27623;51.966;4.602;2022-10-16T13:28:04;65408.28;;;19.43;65.87
41636;BME280;27623;51.966;4.602;2022-10-16T13:30:38;65419.91;;;19.47;66.48
41636;BME280;27623;51.966;4.602;2022-10-16T13:33:15;65451.28;;;19.52;66.77
41636;BME280;27623;51.966;4.602;2022-10-16T13:35:53;65365.59;;;19.23;67.73
41636;BME280;27623;51.966;4.602;2022-10-16T13:38:24;65416.44;;;19.41;66.32
41636;BME280;27623;51.966;4.602;2022-10-16T13:45:55;65398.56;;;19.37;66.87
41636;BME280;27623;51.966;4.602;2022-10-16T13:48:21;65377.47;;;19.15;67.26
41636;BME280;27623;51.966;4.602;2022-10-16T13:51:00;65389.28;;;19.14;67.04
41636;BME280;27623;51.966;4.602;2022-10-16T13:53:25;65384.97;;;19.27;68.80
41636;BME280;27623;51.966;4.602;2022-10-16T13:55:51;65399.25;;;19.16;67.37
41636;BME280;27623;51.966;4.602;2022-10-16T13:58:36;65394.06;;;19.16;69.94
41636;BME280;27623;51.966;4.602;2022-10-16T14:01:15;65414.50;;;19.28;68.79
41636;BME280;27623;51.966;4.602;2022-10-16T14:03:42;65353.06;;;18.97;68.06
41636;BME280;27623;51.966;4.602;2022-10-16T14:06:13;65341.59;;;18.72;67.97
41636;BME280;27623;51.966;4.602;2022-10-16T14:08:44;65289.03;;;18.74;68.59
41636;BME280;27623;51.966;4.602;2022-10-16T14:11:10;65306.78;;;18.69;69.63
41636;BME280;27623;51.966;4.602;2022-10-16T14:13:46;65324.84;;;18.69;66.82
41636;BME280;27623;51.966;4.602;2022-10-16T14:16:29;65282.94;;;18.44;66.79
41636;BME280;27623;51.966;4.602;2022-10-16T14:19:05;65298.72;;;18.57;68.48
41636;BME280;27623;51.966;4.602;2022-10-16T14:21:37;65319.84;;;18.71;68.98
41636;BME280;27623;51.966;4.602;2022-10-16T14:24:13;65359.63;;;18.79;69.25
41636;BME280;27623;51.966;4.602;2022-10-16T14:26:44;65335.41;;;18.88;69.37
41636;BME280;27623;51.966;4.602;2022-10-16T14:29:13;65369.88;;;18.94;69.11
41636;BME280;27623;51.966;4.602;2022-10-16T14:31:38;65376.09;;;19.02;71.88
41636;BME280;27623;51.966;4.602;2022-10-16T14:34:23;65325.41;;;18.93;72.11
41636;BME280;27623;51.966;4.602;2022-10-16T14:36:49;65344.75;;;18.97;68.02
41636;BME280;27623;51.966;4.602;2022-10-16T14:39:22;65354.44;;;18.86;69.68
41636;BME280;27623;51.966;4.602;2022-10-16T14:41:50;65340.34;;;18.93;70.59
41636;BME280;27623;51.966;4.602;2022-10-16T14:44:25;65317.97;;;18.74;70.21
41636;BME280;27623;51.966;4.602;2022-10-16T14:46:52;65330.50;;;18.76;71.20
41636;BME280;27623;51.966;4.602;2022-10-16T14:49:18;65282.19;;;18.72;71.78
41636;BME280;27623;51.966;4.602;2022-10-16T14:51:45;65284.31;;;18.58;71.49
41636;BME280;27623;51.966;4.602;2022-10-16T14:54:12;65284.91;;;18.51;71.89
41636;BME280;27623;51.966;4.602;2022-10-16T14:59:17;65287.84;;;18.56;73.02
41636;BME280;27623;51.966;4.602;2022-10-16T15:01:45;65307.91;;;18.63;75.03
41636;BME280;27623;51.966;4.602;2022-10-16T15:04:12;65276.63;;;18.50;73.85
41636;BME280;27623;51.966;4.602;2022-10-16T15:06:37;65296.72;;;18.50;74.82
41636;BME280;27623;51.966;4.602;2022-10-16T15:09:03;65280.19;;;18.42;75.23
41636;BME280;27623;51.966;4.602;2022-10-16T15:11:29;65276.47;;;18.48;76.66
41636;BME280;27623;51.966;4.602;2022-10-16T15:13:57;65285.34;;;18.42;75.51
41636;BME280;27623;51.966;4.602;2022-10-16T15:16:23;65287.34;;;18.48;78.92
41636;BME280;27623;51.966;4.602;2022-10-16T15:18:50;65270.78;;;18.40;80.31
41636;BME280;27623;51.966;4.602;2022-10-16T15:21:25;65296.22;;;18.42;82.38
41636;BME280;27623;51.966;4.602;2022-10-16T15:23:51;65264.91;;;18.37;84.13